createdAt,value
2023-03-06T00:00:55.652Z,38.67
2023-03-06T00:03:58.948Z,39.67
2023-03-06T00:07:02.087Z,38.65
2023-03-06T00:10:05.826Z,37.78
2023-03-06T00:13:15.580Z,37.45
2023-03-06T00:16:19.969Z,39.50
2023-03-06T00:19:23.420Z,42.00
2023-03-06T00:22:26.696Z,43.10
2023-03-06T00:25:29.871Z,50.95
2023-03-06T00:28:34.672Z,47.08
2023-03-06T00:31:37.895Z,46.53
2023-03-06T00:34:41.129Z,49.22
2023-03-06T00:37:44.354Z,49.00
2023-03-06T00:40:47.530Z,49.13
2023-03-06T00:43:52.331Z,52.47
2023-03-06T00:46:55.535Z,51.75
2023-03-06T00:49:59.761Z,50.08
2023-03-06T00:53:02.920Z,47.72
2023-03-06T00:56:09.084Z,49.63
2023-03-06T00:59:13.715Z,48.75
2023-03-06T01:02:16.929Z,47.70
2023-03-06T01:05:20.604Z,47.45
2023-03-06T01:08:23.780Z,46.45
2023-03-06T01:11:27.028Z,46.10
2023-03-06T01:14:32.292Z,48.22
2023-03-06T01:17:35.475Z,50.17
2023-03-06T01:20:39.534Z,49.15
2023-03-06T01:23:42.981Z,49.13
2023-03-06T01:26:46.127Z,46.60
2023-03-06T01:29:50.726Z,48.53
2023-03-06T01:32:54.006Z,48.72
2023-03-06T01:35:57.181Z,45.55
2023-03-06T01:39:00.367Z,43.15
2023-03-06T01:42:03.608Z,44.30
2023-03-06T01:45:30.535Z,42.67
2023-03-06T01:48:33.846Z,43.58
2023-03-06T01:51:40.112Z,43.63
2023-03-06T01:54:47.198Z,43.42
2023-03-06T01:57:54.194Z,43.75
2023-03-06T02:00:58.866Z,41.95
2023-03-06T02:04:03.097Z,41.22
2023-03-06T02:07:08.509Z,42.35
2023-03-06T02:10:13.322Z,42.20
2023-03-06T02:13:16.631Z,43.20
2023-03-06T02:16:25.266Z,43.28
2023-03-06T02:19:36.713Z,41.10
2023-03-06T02:22:49.052Z,42.38
2023-03-06T02:25:55.629Z,44.15
2023-03-06T02:28:59.326Z,46.20
2023-03-06T02:32:03.481Z,46.88
2023-03-06T02:35:07.571Z,45.80
2023-03-06T02:38:13.625Z,45.25
2023-03-06T02:41:18.938Z,43.53
2023-03-06T02:44:25.093Z,47.80
2023-03-06T02:47:29.237Z,44.17
2023-03-06T02:50:33.594Z,46.42
2023-03-06T02:53:37.612Z,49.40
2023-03-06T02:56:42.194Z,51.40
2023-03-06T02:59:45.435Z,48.38
2023-03-06T03:02:48.683Z,49.65
2023-03-06T03:05:51.956Z,49.70
2023-03-06T03:09:02.504Z,51.63
2023-03-06T03:12:08.873Z,51.53
2023-03-06T03:15:12.705Z,51.00
2023-03-06T03:18:15.895Z,51.33
2023-03-06T03:21:19.336Z,49.22
2023-03-06T03:24:24.246Z,46.95
2023-03-06T03:27:28.910Z,47.28
2023-03-06T03:30:32.309Z,46.97
2023-03-06T03:33:36.016Z,46.97
2023-03-06T03:36:40.134Z,46.70
2023-03-06T03:39:45.270Z,47.60
2023-03-06T03:42:49.921Z,50.05
2023-03-06T03:45:54.467Z,57.17
2023-03-06T03:48:57.782Z,72.55
2023-03-06T03:52:01.392Z,72.38
2023-03-06T03:55:08.954Z,59.70
2023-03-06T03:58:15.789Z,75.18
2023-03-06T04:01:19.395Z,60.95
2023-03-06T04:04:22.983Z,55.30
2023-03-06T04:07:26.373Z,58.58
2023-03-06T04:10:30.470Z,57.88
2023-03-06T04:13:35.891Z,58.72
2023-03-06T04:16:40.094Z,56.47
2023-03-06T04:19:43.302Z,53.40
2023-03-06T04:22:46.534Z,50.63
2023-03-06T04:25:50.206Z,53.70
2023-03-06T04:28:55.584Z,52.78
2023-03-06T04:31:59.103Z,52.90
2023-03-06T04:35:02.734Z,57.83
2023-03-06T04:38:11.665Z,51.35
2023-03-06T04:41:14.921Z,53.63
2023-03-06T04:44:19.582Z,55.25
2023-03-06T04:47:22.756Z,52.50
2023-03-06T04:50:28.026Z,55.88
2023-03-06T04:53:32.777Z,54.42
2023-03-06T04:56:36.000Z,52.75
2023-03-06T04:59:40.787Z,56.03
2023-03-06T05:02:44.569Z,55.72
2023-03-06T05:05:47.797Z,56.08
2023-03-06T05:08:51.024Z,57.15
2023-03-06T05:11:54.275Z,53.50
2023-03-06T05:14:59.342Z,53.83
2023-03-06T05:18:02.545Z,55.10
2023-03-06T05:21:06.974Z,54.58
2023-03-06T05:24:11.270Z,54.95
2023-03-06T05:27:16.808Z,65.60
2023-03-06T05:30:23.163Z,76.85
2023-03-06T05:33:27.007Z,71.70
2023-03-06T05:36:30.157Z,65.13
2023-03-06T05:39:33.334Z,65.35
2023-03-06T05:42:36.533Z,61.45
2023-03-06T05:45:42.102Z,55.78
2023-03-06T05:48:46.822Z,54.42
2023-03-06T05:51:50.152Z,50.88
2023-03-06T05:54:55.012Z,50.78
2023-03-06T05:57:58.321Z,50.45
2023-03-06T06:01:10.627Z,51.45
2023-03-06T06:04:13.874Z,49.10
2023-03-06T06:07:18.265Z,49.00
2023-03-06T06:10:21.643Z,49.65
2023-03-06T06:13:24.853Z,46.60
2023-03-06T06:16:29.431Z,48.65
2023-03-06T06:19:32.708Z,48.72
2023-03-06T06:22:38.616Z,52.38
2023-03-06T06:25:42.112Z,42.25
2023-03-06T06:28:45.294Z,40.95
2023-03-06T06:31:50.070Z,48.88
2023-03-06T06:34:53.290Z,39.17
2023-03-06T06:37:56.524Z,39.65
2023-03-06T06:41:31.213Z,36.45
2023-03-06T06:44:22.953Z,36.40
2023-03-06T06:47:27.627Z,38.22
2023-03-06T06:50:30.885Z,37.58
2023-03-06T06:53:34.192Z,37.53
2023-03-06T06:56:37.348Z,36.85
2023-03-06T06:59:40.638Z,36.72
2023-03-06T07:02:49.050Z,36.45
2023-03-06T07:05:57.566Z,37.88
2023-03-06T07:09:00.774Z,32.80
2023-03-06T07:12:03.946Z,33.55
2023-03-06T07:15:08.399Z,36.10
2023-03-06T07:18:12.955Z,38.33
2023-03-06T07:21:16.495Z,38.97
2023-03-06T07:24:19.733Z,36.75
2023-03-06T07:27:23.744Z,37.35
2023-03-06T07:30:27.170Z,40.25
2023-03-06T07:33:31.858Z,41.38
2023-03-06T07:36:35.110Z,37.70
2023-03-06T07:39:38.311Z,37.63
2023-03-06T07:42:41.477Z,35.92
2023-03-06T07:45:48.468Z,32.97
2023-03-06T07:48:53.035Z,37.80
2023-03-06T07:51:56.164Z,34.38
2023-03-06T07:54:59.303Z,34.58
2023-03-06T07:58:02.473Z,34.05
2023-03-06T08:01:07.295Z,32.10
2023-03-06T08:04:11.952Z,32.10
2023-03-06T08:07:15.155Z,27.48
2023-03-06T08:10:18.870Z,26.08
2023-03-06T08:13:22.069Z,25.00
2023-03-06T08:16:27.540Z,23.40
2023-03-06T08:19:32.295Z,22.70
2023-03-06T08:22:35.993Z,22.90
2023-03-06T08:25:39.315Z,22.40
2023-03-06T08:28:42.830Z,20.60
2023-03-06T08:31:47.409Z,20.38
2023-03-06T08:34:52.128Z,20.00
2023-03-06T08:37:55.250Z,21.00
2023-03-06T08:40:58.712Z,19.73
2023-03-06T08:44:01.965Z,19.33
2023-03-06T08:47:05.386Z,21.27
2023-03-06T08:50:11.677Z,19.52
2023-03-06T08:53:14.965Z,19.52
2023-03-06T08:56:19.452Z,18.52
2023-03-06T08:59:24.693Z,19.20
2023-03-06T09:02:28.202Z,19.58
2023-03-06T09:05:32.823Z,19.52
2023-03-06T09:08:36.138Z,19.63
2023-03-06T09:11:39.940Z,20.65
2023-03-06T09:14:43.199Z,21.83
2023-03-06T09:17:47.205Z,21.85
2023-03-06T09:20:51.853Z,20.80
2023-03-06T09:23:55.148Z,21.45
2023-03-06T09:26:58.398Z,19.90
2023-03-06T09:30:05.244Z,20.42
2023-03-06T09:33:09.080Z,20.63
2023-03-06T09:36:17.004Z,20.55
2023-03-06T09:39:20.431Z,19.92
2023-03-06T09:42:24.395Z,21.38
2023-03-06T09:45:28.043Z,22.75
2023-03-06T09:48:42.331Z,23.05
2023-03-06T09:51:58.058Z,23.23
2023-03-06T09:55:10.320Z,23.08
2023-03-06T09:58:18.327Z,21.67
2023-03-06T10:01:25.417Z,22.40
2023-03-06T10:04:41.667Z,21.42
2023-03-06T10:07:50.088Z,23.45
2023-03-06T10:11:01.858Z,22.98
2023-03-06T10:14:17.451Z,21.20
2023-03-06T10:17:23.770Z,21.50
2023-03-06T10:20:29.690Z,20.55
2023-03-06T10:23:48.937Z,20.98
2023-03-06T10:27:00.171Z,20.73
2023-03-06T10:30:20.801Z,21.35
2023-03-06T10:33:34.374Z,19.70
2023-03-06T10:36:37.567Z,18.35
2023-03-06T10:39:44.184Z,19.40
2023-03-06T10:42:47.380Z,19.80
2023-03-06T10:45:52.792Z,19.95
2023-03-06T10:48:59.884Z,18.98
2023-03-06T10:52:06.863Z,15.18
2023-03-06T10:55:28.108Z,13.30
2023-03-06T10:58:33.481Z,15.02
2023-03-06T11:01:36.846Z,11.85
2023-03-06T11:04:42.382Z,12.68
2023-03-06T11:07:55.759Z,11.88
2023-03-06T11:11:03.485Z,11.32
2023-03-06T11:14:16.001Z,13.25
2023-03-06T11:17:30.873Z,13.55
2023-03-06T11:20:50.431Z,12.98
2023-03-06T11:27:02.941Z,18.50
2023-03-06T11:30:12.033Z,16.95
2023-03-06T11:33:26.722Z,16.15
2023-03-06T11:36:38.309Z,15.63
2023-03-06T11:39:47.952Z,14.35
2023-03-06T11:43:00.377Z,16.42
2023-03-06T11:46:09.828Z,14.93
2023-03-06T11:49:20.347Z,11.60
2023-03-06T11:55:40.537Z,24.05
2023-03-06T11:59:09.797Z,23.23
2023-03-06T12:02:23.773Z,21.42
2023-03-06T12:05:35.787Z,21.00
2023-03-06T12:08:48.346Z,43.75
2023-03-06T12:12:02.850Z,55.88
2023-03-06T12:15:19.964Z,32.40
2023-03-06T12:18:36.971Z,65.30
2023-03-06T12:21:51.832Z,35.17
2023-03-06T12:25:10.493Z,48.38
2023-03-06T12:28:38.863Z,39.10
2023-03-06T12:31:57.234Z,32.33
2023-03-06T12:35:18.256Z,32.58
2023-03-06T12:38:45.909Z,25.98
2023-03-06T12:42:11.485Z,27.02
2023-03-06T12:45:31.644Z,27.33
2023-03-06T12:48:38.768Z,26.90
2023-03-06T12:51:44.164Z,28.23
2023-03-06T12:54:47.784Z,29.33
2023-03-06T12:57:51.354Z,28.38
2023-03-06T13:01:04.671Z,26.33
2023-03-06T13:04:30.420Z,25.02
2023-03-06T13:07:44.885Z,27.45
2023-03-06T13:11:06.514Z,38.47
2023-03-06T13:14:37.490Z,42.53
2023-03-06T13:17:42.899Z,36.45
2023-03-06T13:20:48.604Z,32.78
2023-03-06T13:23:53.583Z,35.78
2023-03-06T13:27:02.408Z,30.33
2023-03-06T13:30:20.948Z,29.48
2023-03-06T13:33:53.092Z,28.27
2023-03-06T13:37:36.359Z,32.20
2023-03-06T13:40:39.540Z,32.42
2023-03-06T13:43:45.402Z,31.23
2023-03-06T13:46:58.133Z,33.65
2023-03-06T13:50:02.854Z,35.88
2023-03-06T13:53:36.548Z,38.72
2023-03-06T13:57:25.160Z,35.15
2023-03-06T14:00:48.484Z,36.70
2023-03-06T14:04:21.909Z,36.38
2023-03-06T14:07:27.864Z,38.08
2023-03-06T14:10:35.789Z,37.25
2023-03-06T14:13:47.349Z,35.08
2023-03-06T14:16:53.569Z,32.35
2023-03-06T14:19:59.022Z,29.33
2023-03-06T14:23:23.012Z,28.40
2023-03-06T14:26:28.457Z,26.35
2023-03-06T14:29:33.807Z,26.63
2023-03-06T14:32:41.106Z,24.50
2023-03-06T14:35:54.998Z,23.77
2023-03-06T14:39:02.397Z,22.58
2023-03-06T14:42:18.468Z,23.05
2023-03-06T14:45:23.753Z,22.38
2023-03-06T14:48:38.400Z,21.23
2023-03-06T14:51:43.896Z,23.00
2023-03-06T14:54:47.850Z,22.52
2023-03-06T14:57:56.907Z,21.98
2023-03-06T15:01:04.239Z,21.08
2023-03-06T15:04:16.692Z,20.15
2023-03-06T15:07:23.777Z,25.77
2023-03-06T15:10:29.634Z,20.45
2023-03-06T15:13:35.458Z,17.30
2023-03-06T15:16:39.064Z,17.98
2023-03-06T15:19:42.394Z,16.83
2023-03-06T15:22:51.292Z,17.08
2023-03-06T15:25:57.911Z,16.20
2023-03-06T15:29:21.624Z,16.73
2023-03-06T15:32:32.360Z,17.23
2023-03-06T15:35:37.858Z,17.88
2023-03-06T15:38:43.048Z,16.85
2023-03-06T15:41:46.381Z,16.80
2023-03-06T15:44:53.586Z,15.00
2023-03-06T15:47:57.098Z,14.02
2023-03-06T15:51:00.338Z,14.88
2023-03-06T15:54:11.938Z,12.77
2023-03-06T15:57:21.384Z,14.00
2023-03-06T16:00:28.737Z,15.65
2023-03-06T16:03:32.186Z,16.05
2023-03-06T16:06:35.443Z,13.40
2023-03-06T16:09:39.022Z,15.45
2023-03-06T16:12:46.115Z,17.65
2023-03-06T16:15:52.192Z,16.00
2023-03-06T16:18:55.968Z,15.65
2023-03-06T16:21:59.920Z,14.88
2023-03-06T16:25:07.577Z,19.10
2023-03-06T16:28:14.188Z,19.63
2023-03-06T16:31:18.806Z,21.90
2023-03-06T16:34:22.045Z,24.08
2023-03-06T16:37:25.353Z,24.45
2023-03-06T16:40:32.302Z,28.95
2023-03-06T16:43:35.569Z,27.50
2023-03-06T16:46:42.057Z,33.63
2023-03-06T16:49:45.399Z,76.07
2023-03-06T16:52:48.772Z,62.92
2023-03-06T16:55:52.062Z,56.53
2023-03-06T16:58:55.386Z,47.35
2023-03-06T17:02:00.022Z,50.17
2023-03-06T17:05:03.793Z,53.20
2023-03-06T17:08:07.084Z,65.30
2023-03-06T17:11:10.774Z,46.60
2023-03-06T17:14:14.126Z,54.40
2023-03-06T17:17:18.691Z,51.53
2023-03-06T17:20:23.708Z,44.58
2023-03-06T17:23:28.760Z,46.22
2023-03-06T17:26:32.128Z,45.38
2023-03-06T17:29:35.402Z,49.15
2023-03-06T17:32:41.345Z,49.97
2023-03-06T17:35:44.905Z,47.25
2023-03-06T17:38:48.301Z,44.67
2023-03-06T17:41:51.688Z,40.05
2023-03-06T17:44:55.248Z,37.83
2023-03-06T17:47:59.894Z,36.90
2023-03-06T17:51:04.018Z,41.38
2023-03-06T17:54:07.323Z,34.95
2023-03-06T17:57:11.032Z,32.70
2023-03-06T18:00:15.108Z,33.17
2023-03-06T18:03:20.778Z,33.60
2023-03-06T18:06:26.127Z,31.38
2023-03-06T18:09:29.393Z,34.47
2023-03-06T18:12:32.919Z,37.55
2023-03-06T18:15:40.592Z,36.17
2023-03-06T18:18:45.626Z,42.55
2023-03-06T18:21:50.068Z,40.47
2023-03-06T18:24:53.442Z,40.38
2023-03-06T18:27:56.634Z,41.42
2023-03-06T18:30:59.969Z,40.75
2023-03-06T18:34:07.285Z,39.15
2023-03-06T18:37:11.626Z,39.92
2023-03-06T18:40:15.627Z,42.20
2023-03-06T18:43:18.953Z,46.85
2023-03-06T18:46:23.492Z,49.90
2023-03-06T18:49:30.131Z,46.92
2023-03-06T18:52:34.313Z,51.28
2023-03-06T18:55:38.411Z,46.78
2023-03-06T18:58:41.834Z,45.55
2023-03-06T19:01:45.868Z,50.28
2023-03-06T19:04:50.593Z,59.03
2023-03-06T19:07:53.775Z,46.50
2023-03-06T19:10:57.519Z,45.80
2023-03-06T19:14:03.436Z,45.58
2023-03-06T19:17:07.178Z,41.90
2023-03-06T19:20:13.802Z,43.63
2023-03-06T19:23:17.153Z,46.90
2023-03-06T19:26:20.750Z,45.40
2023-03-06T19:29:24.165Z,45.80
2023-03-06T19:32:30.014Z,46.85
2023-03-06T19:35:36.850Z,41.40
2023-03-06T19:38:40.780Z,45.72
2023-03-06T19:41:44.451Z,42.83
2023-03-06T19:44:48.296Z,43.28
2023-03-06T19:47:55.569Z,46.10
2023-03-06T19:51:04.643Z,84.88
2023-03-06T19:54:07.960Z,96.00
2023-03-06T19:57:11.425Z,52.00
2023-03-06T20:00:19.266Z,48.00
2023-03-06T20:03:22.699Z,37.92
2023-03-06T20:06:28.720Z,41.78
2023-03-06T20:09:33.292Z,40.85
2023-03-06T20:12:36.968Z,36.90
2023-03-06T20:15:41.548Z,44.38
2023-03-06T20:18:45.686Z,43.45
2023-03-06T20:21:50.451Z,40.10
2023-03-06T20:24:54.013Z,31.40
2023-03-06T20:27:57.441Z,33.10
2023-03-06T20:31:00.813Z,38.22
2023-03-06T20:34:04.633Z,37.53
2023-03-06T20:37:09.810Z,37.72
2023-03-06T20:40:13.933Z,34.70
2023-03-06T20:43:17.506Z,35.15
2023-03-06T20:46:23.216Z,34.08
2023-03-06T20:49:27.447Z,32.40
2023-03-06T20:52:32.161Z,32.92
2023-03-06T20:55:38.754Z,33.67
2023-03-06T20:58:42.059Z,33.50
2023-03-06T21:01:46.921Z,35.90
2023-03-06T21:04:51.269Z,36.33
2023-03-06T21:07:56.004Z,41.90
2023-03-06T21:10:59.396Z,44.55
2023-03-06T21:14:05.390Z,41.75
2023-03-06T21:17:08.988Z,37.75
2023-03-06T21:20:13.022Z,39.00
2023-03-06T21:23:17.670Z,37.17
2023-03-06T21:26:22.959Z,36.17
2023-03-06T21:29:26.571Z,36.15
2023-03-06T21:32:35.086Z,36.55
2023-03-06T21:35:38.855Z,38.45
2023-03-06T21:38:43.565Z,34.45
2023-03-06T21:41:46.787Z,36.05
2023-03-06T21:44:50.330Z,41.63
2023-03-06T21:47:53.605Z,36.75
2023-03-06T21:51:05.838Z,36.67
2023-03-06T21:54:10.681Z,39.25
2023-03-06T21:57:13.885Z,38.47
2023-03-06T22:00:18.401Z,38.67
2023-03-06T22:03:21.805Z,40.67
2023-03-06T22:06:26.704Z,43.75
2023-03-06T22:09:31.319Z,40.05
2023-03-06T22:12:34.931Z,40.05
2023-03-06T22:15:38.124Z,41.65
2023-03-06T22:18:44.891Z,41.70
2023-03-06T22:21:48.103Z,82.10
2023-03-06T22:24:52.621Z,42.88
2023-03-06T22:27:55.779Z,44.63
2023-03-06T22:31:07.264Z,45.25
2023-03-06T22:34:11.211Z,43.33
2023-03-06T22:37:14.406Z,43.63
2023-03-06T22:40:20.361Z,45.92
2023-03-06T22:43:23.572Z,42.97
2023-03-06T22:46:28.101Z,46.67
2023-03-06T22:49:31.614Z,43.88
2023-03-06T22:52:34.844Z,43.55
2023-03-06T22:55:39.525Z,41.63
2023-03-06T22:58:44.713Z,41.80
2023-03-06T23:01:47.991Z,40.80
2023-03-06T23:04:53.355Z,44.22
2023-03-06T23:07:56.614Z,48.78
2023-03-06T23:11:01.220Z,46.15
2023-03-06T23:14:23.239Z,43.25
2023-03-06T23:17:45.144Z,43.38
2023-03-06T23:21:08.755Z,42.90
2023-03-06T23:24:30.689Z,45.47
2023-03-06T23:27:36.724Z,42.80
2023-03-06T23:30:40.650Z,43.58
2023-03-06T23:33:44.079Z,42.20
2023-03-06T23:36:47.230Z,42.05
2023-03-06T23:39:50.435Z,42.70
2023-03-06T23:42:55.010Z,42.45
2023-03-06T23:45:58.725Z,45.83
2023-03-06T23:49:01.950Z,52.53
2023-03-06T23:52:05.518Z,53.63
2023-03-06T23:55:09.445Z,45.20
2023-03-06T23:58:14.840Z,43.22
